McClintock: Past 24 Hour Conditions

 

Rankin Inlet Airport

10:00 PM CST 22 November 2014
This table is a summary of hourly weather conditions for the past 24 hours.
Date / Time
(CST)
Wind(knots) Conditions Visibility(km) Pressure(kPa) Air tempC) Relative humidity(%) Dew pointC) Wind Chill
22 November 2014
22:00 WNW 11 Ice Crystals 24 100.2 -31 68 -35 -45
21:00 WNW 12 Ice Crystals 24 100.2 -31 68 -35 -45
20:00 WNW 12 Ice Crystals 24 100.2 -31 68 -35 -44
19:00 WNW 14 Ice Crystals 24 100.2 -30 68 -34 -45
18:00 WNW 12 Ice Crystals 24 100.2 -30 68 -34 -44
17:00 WNW 13 Ice Crystals 24 100.1 -30 68 -35 -45
16:00 WNW 14 Ice Crystals 24 100.1 -30 68 -34 -45
15:00 WNW 11 Ice Crystals 24 100.1 -30 68 -34 -44
14:00 NW 11 Ice Crystals 24 100.1 -30 68 -35 -44
13:00 WNW 12 Ice Crystals 24 100.0 -30 68 -34 -44
12:00 WNW 9 Ice Crystals 24 100.0 -30 68 -34 -42
11:00 WNW 14 Ice Crystals 24 100.0 -30 68 -35 -45
10:00 WNW 12 Ice Crystals 24 100.0 -31 69 -35 -44
9:00 WNW 10 Ice Crystals 24 100.0 -31 69 -35 -43
8:00 WNW 10 Ice Crystals 24 100.0 -30 70 -34 -42
7:00 WNW 10 Ice Crystals 24 100.0 -30 70 -34 -43
6:00 NW 8 Ice Crystals 24 100.1 -30 70 -34 -42
5:00 NW 8 Ice Crystals 24 100.0 -30 71 -34 -41
4:00 NW 9 Ice Crystals 24 100.1 -30 71 -34 -42
3:00 WNW 9 Ice Crystals 24 100.1 -30 70 -34 -42
2:00 WNW 8 Ice Crystals 24 100.1 -30 70 -34 -41
1:00 WNW 9 Ice Crystals 24 100.1 -31 70 -34 -43
0:00 WNW 8 Ice Crystals 24 100.1 -30 71 -34 -42
21 November 2014
23:00 WNW 9 Ice Crystals 24 100.1 -30 71 -34 -42
22:00 WNW 9 Ice Crystals 19 100.1 -30 71 -34 -42
 
Map of Arctic - Eastern Arctic marine weather areas Baker Lake Airport Chesterfield Inlet Airport Coral Harbour Airport Gjoa Haven Airport Kugaaruk Airport Rankin Inlet Airport Shepherd Bay Airport Whale Cove Airport Arctic Bay Brevoort Island Qikiqtarjuaq Airport Cape Dorset Airport Cape Dyer Cape Hooper Clyde Airport Grise Fiord Airport Hall Beach Airport Igloolik Airport Iqaluit Airport Longstaff Bluff Pangnirtung Airport Pond Inlet Airport Repulse Bay Airport Resolute Airport Resolution Island Rowley Island Airport Taloyoak Airport Wager Bay Akulivik Airport Ivujivik Airport Puvirnituq Airport Kangiqsujuaq Airport Kangirsuk Airport Quaqtaq Airport Tasiujaq Airport Cape Kakkiviak Cape Kiglapait Nain Airport Saglek Cape Mercy Kimmirut Airport Aupaluk Airport Salluit Airport Kangiqsualujjuaq Airport Fort Ross
Legend: buoyBuoy land stationLand Station